createdAt,value
2023-09-14T00:00:56.514Z,54.10
2023-09-14T00:03:24.828Z,54.01
2023-09-14T00:05:53.040Z,54.04
2023-09-14T00:08:22.812Z,54.06
2023-09-14T00:10:57.083Z,53.78
2023-09-14T00:13:25.363Z,54.18
2023-09-14T00:15:53.556Z,54.17
2023-09-14T00:18:21.908Z,54.06
2023-09-14T00:20:53.991Z,53.91
2023-09-14T00:23:22.828Z,53.82
2023-09-14T00:25:51.468Z,53.68
2023-09-14T00:28:20.982Z,53.62
2023-09-14T00:30:54.504Z,53.33
2023-09-14T00:33:23.988Z,53.76
2023-09-14T00:35:52.320Z,53.69
2023-09-14T00:38:20.412Z,53.61
2023-09-14T00:40:49.628Z,53.65
2023-09-14T00:43:17.920Z,53.65
2023-09-14T00:45:48.294Z,53.63
2023-09-14T00:48:18.111Z,53.82
2023-09-14T00:50:46.742Z,53.88
2023-09-14T00:53:16.988Z,53.88
2023-09-14T00:55:46.688Z,53.94
2023-09-14T00:58:17.274Z,54.07
2023-09-14T01:00:48.604Z,54.23
2023-09-14T01:03:17.256Z,54.28
2023-09-14T01:05:46.770Z,54.35
2023-09-14T01:08:15.270Z,54.33
2023-09-14T01:10:45.832Z,54.40
2023-09-14T01:13:24.387Z,54.25
2023-09-14T01:16:01.050Z,53.96
2023-09-14T01:18:35.684Z,54.08
2023-09-14T01:21:34.107Z,53.86
2023-09-14T01:24:20.074Z,53.84
2023-09-14T01:26:50.811Z,54.29
2023-09-14T01:29:19.721Z,54.33
2023-09-14T01:31:47.786Z,54.26
2023-09-14T01:34:16.086Z,54.34
2023-09-14T01:36:52.845Z,53.92
2023-09-14T01:39:22.871Z,54.34
2023-09-14T01:41:56.204Z,54.41
2023-09-14T01:44:28.267Z,54.38
2023-09-14T01:46:57.366Z,54.34
2023-09-14T01:49:25.479Z,54.25
2023-09-14T01:51:54.181Z,54.35
2023-09-14T01:54:22.312Z,54.35
2023-09-14T01:56:52.434Z,54.29
2023-09-14T01:59:20.503Z,54.27
2023-09-14T02:01:48.659Z,54.17
2023-09-14T02:04:16.734Z,54.07
2023-09-14T02:06:44.807Z,54.07
2023-09-14T02:09:12.883Z,54.12
2023-09-14T02:11:40.932Z,54.04
2023-09-14T02:14:11.201Z,53.97
2023-09-14T02:16:39.389Z,54.04
2023-09-14T02:19:07.525Z,53.95
2023-09-14T02:21:35.675Z,53.99
2023-09-14T02:24:03.717Z,54.04
2023-09-14T02:26:31.782Z,54.05
2023-09-14T02:28:59.837Z,54.10
2023-09-14T02:31:30.056Z,54.10
2023-09-14T02:33:58.470Z,54.16
2023-09-14T02:36:28.165Z,54.10
2023-09-14T02:38:56.898Z,54.06
2023-09-14T02:41:24.974Z,54.09
2023-09-14T02:43:53.047Z,54.02
2023-09-14T02:46:21.115Z,54.07
2023-09-14T02:48:50.920Z,54.04
2023-09-14T02:51:19.907Z,54.07
2023-09-14T02:53:49.882Z,54.09
2023-09-14T02:56:18.187Z,54.14
2023-09-14T02:58:46.381Z,54.16
2023-09-14T03:01:14.937Z,54.15
2023-09-14T03:03:43.264Z,54.07
2023-09-14T03:06:12.728Z,54.01
2023-09-14T03:08:41.062Z,53.91
2023-09-14T03:11:09.165Z,53.98
2023-09-14T03:13:37.949Z,54.04
2023-09-14T03:16:06.421Z,53.96
2023-09-14T03:18:34.672Z,53.97
2023-09-14T03:21:02.739Z,53.92
2023-09-14T03:23:33.681Z,54.01
2023-09-14T03:26:01.768Z,54.05
2023-09-14T03:28:29.847Z,54.16
2023-09-14T03:30:57.887Z,54.26
2023-09-14T03:33:25.983Z,54.38
2023-09-14T03:35:54.114Z,54.42
2023-09-14T03:38:22.226Z,54.33
2023-09-14T03:40:51.750Z,54.33
2023-09-14T03:43:19.772Z,54.46
2023-09-14T03:45:48.205Z,54.32
2023-09-14T03:48:17.491Z,54.32
2023-09-14T03:50:45.712Z,54.34
2023-09-14T03:53:13.718Z,54.38
2023-09-14T03:55:42.090Z,54.62
2023-09-14T03:58:11.612Z,54.53
2023-09-14T04:00:39.819Z,54.52
2023-09-14T04:03:09.724Z,54.53
2023-09-14T04:05:37.922Z,54.50
2023-09-14T04:08:08.319Z,54.57
2023-09-14T04:10:39.432Z,54.45
2023-09-14T04:13:28.669Z,54.23
2023-09-14T04:15:58.462Z,54.61
2023-09-14T04:18:27.070Z,54.63
2023-09-14T04:20:55.962Z,54.60
2023-09-14T04:23:24.234Z,54.66
2023-09-14T04:25:52.939Z,54.72
2023-09-14T04:28:22.306Z,54.77
2023-09-14T04:30:54.372Z,54.62
2023-09-14T04:33:23.354Z,54.84
2023-09-14T04:35:57.192Z,54.46
2023-09-14T04:38:25.481Z,54.82
2023-09-14T04:40:53.698Z,54.71
2023-09-14T04:43:23.712Z,54.68
2023-09-14T04:45:53.469Z,54.65
2023-09-14T04:48:22.182Z,54.54
2023-09-14T04:50:50.286Z,54.55
2023-09-14T04:53:19.841Z,54.57
2023-09-14T04:55:48.613Z,54.52
2023-09-14T04:58:17.188Z,54.45
2023-09-14T05:00:45.481Z,54.39
2023-09-14T05:03:15.029Z,54.29
2023-09-14T05:05:43.275Z,54.26
2023-09-14T05:08:11.734Z,54.27
2023-09-14T05:10:40.010Z,54.26
2023-09-14T05:13:08.222Z,54.28
2023-09-14T05:15:36.483Z,54.27
2023-09-14T05:18:05.390Z,54.27
2023-09-14T05:20:34.888Z,54.30
2023-09-14T05:23:03.202Z,54.27
2023-09-14T05:25:31.292Z,54.27
2023-09-14T05:28:00.530Z,54.21
2023-09-14T05:30:28.689Z,54.14
2023-09-14T05:32:57.122Z,54.15
2023-09-14T05:35:25.214Z,54.10
2023-09-14T05:37:54.878Z,54.01
2023-09-14T05:40:23.087Z,54.09
2023-09-14T05:42:51.190Z,54.07
2023-09-14T05:45:20.090Z,54.08
2023-09-14T05:47:48.467Z,54.01
2023-09-14T05:50:16.540Z,53.81
2023-09-14T05:52:44.891Z,53.77
2023-09-14T05:55:14.378Z,53.72
2023-09-14T05:57:42.587Z,53.72
2023-09-14T06:00:14.302Z,53.68
2023-09-14T06:02:48.147Z,53.65
2023-09-14T06:05:25.262Z,53.80
2023-09-14T06:07:54.542Z,53.91
2023-09-14T06:10:24.427Z,53.81
2023-09-14T06:12:53.043Z,53.62
2023-09-14T06:15:21.308Z,53.37
2023-09-14T06:17:49.621Z,53.33
2023-09-14T06:20:18.134Z,53.20
2023-09-14T06:22:46.264Z,53.19
2023-09-14T06:25:14.495Z,53.13
2023-09-14T06:27:45.433Z,53.04
2023-09-14T06:30:14.681Z,53.00
2023-09-14T06:32:42.753Z,52.91
2023-09-14T06:35:12.037Z,52.82
2023-09-14T06:37:40.159Z,52.81
2023-09-14T06:40:10.215Z,52.78
2023-09-14T06:42:38.615Z,52.75
2023-09-14T06:45:09.531Z,52.59
2023-09-14T06:47:37.664Z,52.83
2023-09-14T06:50:06.308Z,52.97
2023-09-14T06:52:35.448Z,52.71
2023-09-14T06:55:04.159Z,52.52
2023-09-14T06:57:32.243Z,52.50
2023-09-14T07:00:01.942Z,52.16
2023-09-14T07:02:31.612Z,52.26
2023-09-14T07:04:59.696Z,52.36
2023-09-14T07:07:27.778Z,52.22
2023-09-14T07:09:55.863Z,51.63
2023-09-14T07:12:24.035Z,51.23
2023-09-14T07:14:52.186Z,51.48
2023-09-14T07:17:22.946Z,51.13
2023-09-14T07:19:53.002Z,50.15
2023-09-14T07:22:21.744Z,49.42
2023-09-14T07:24:50.067Z,48.03
2023-09-14T07:27:18.499Z,46.19
2023-09-14T07:29:48.659Z,45.59
2023-09-14T07:32:16.809Z,44.44
2023-09-14T07:34:45.117Z,43.50
2023-09-14T07:37:14.812Z,43.37
2023-09-14T07:39:43.048Z,41.80
2023-09-14T07:42:11.249Z,40.82
2023-09-14T07:44:39.460Z,40.50
2023-09-14T07:47:07.681Z,37.78
2023-09-14T07:49:35.837Z,37.06
2023-09-14T07:52:04.029Z,38.02
2023-09-14T07:54:35.768Z,37.91
2023-09-14T07:57:03.913Z,37.45
2023-09-14T07:59:32.033Z,36.96
2023-09-14T08:02:00.116Z,36.64
2023-09-14T08:04:28.287Z,37.30
2023-09-14T08:06:56.504Z,37.40
2023-09-14T08:09:25.001Z,37.96
2023-09-14T08:11:54.409Z,38.32
2023-09-14T08:14:22.420Z,38.46
2023-09-14T08:16:50.745Z,38.50
2023-09-14T08:19:18.965Z,38.43
2023-09-14T08:21:47.061Z,37.80
2023-09-14T08:24:15.220Z,36.85
2023-09-14T08:26:43.312Z,37.44
2023-09-14T08:29:13.376Z,37.99
2023-09-14T08:31:44.089Z,37.76
2023-09-14T08:34:13.220Z,37.43
2023-09-14T08:36:41.323Z,37.30
2023-09-14T08:39:16.369Z,36.52
2023-09-14T08:41:45.641Z,35.56
2023-09-14T08:44:16.624Z,34.04
2023-09-14T08:46:46.214Z,35.04
2023-09-14T08:49:15.776Z,35.14
2023-09-14T08:51:46.023Z,34.05
2023-09-14T08:54:17.182Z,33.92
2023-09-14T08:56:47.999Z,33.28
2023-09-14T08:59:21.130Z,31.06
2023-09-14T09:01:50.174Z,31.54
2023-09-14T09:04:18.912Z,30.25
2023-09-14T09:06:47.401Z,30.22
2023-09-14T09:09:22.412Z,30.88
2023-09-14T09:11:51.696Z,31.03
2023-09-14T09:14:21.160Z,29.96
2023-09-14T09:16:49.269Z,29.66
2023-09-14T09:19:17.601Z,29.69
2023-09-14T09:21:48.169Z,30.23
2023-09-14T09:24:28.127Z,29.05
2023-09-14T09:26:56.874Z,31.38
2023-09-14T09:29:27.368Z,29.93
2023-09-14T09:31:55.542Z,29.48
2023-09-14T09:34:26.848Z,28.23
2023-09-14T09:36:59.316Z,26.26
2023-09-14T09:39:27.757Z,26.83
2023-09-14T09:41:55.956Z,24.43
2023-09-14T09:44:28.594Z,25.82
2023-09-14T09:47:00.099Z,25.95
2023-09-14T09:49:32.367Z,26.01
2023-09-14T09:52:00.702Z,27.82
2023-09-14T09:54:29.122Z,26.71
2023-09-14T09:56:59.034Z,26.20
2023-09-14T09:59:30.946Z,24.43
2023-09-14T10:02:00.498Z,24.13
2023-09-14T10:04:29.638Z,25.18
2023-09-14T10:06:58.272Z,26.58
2023-09-14T10:09:34.451Z,26.76
2023-09-14T10:12:05.475Z,27.20
2023-09-14T10:14:37.128Z,27.49
2023-09-14T10:17:09.925Z,28.64
2023-09-14T10:19:40.816Z,28.78
2023-09-14T10:22:10.796Z,28.67
2023-09-14T10:24:39.446Z,29.22
2023-09-14T10:27:08.970Z,29.69
2023-09-14T10:29:40.544Z,30.14
2023-09-14T10:32:12.265Z,29.62
2023-09-14T10:34:52.143Z,27.49
2023-09-14T10:37:22.025Z,26.17
2023-09-14T10:39:50.827Z,26.60
2023-09-14T10:42:19.005Z,26.32
2023-09-14T10:44:47.175Z,24.69
2023-09-14T10:47:19.193Z,24.13
2023-09-14T10:49:48.637Z,22.82
2023-09-14T10:52:25.459Z,22.54
2023-09-14T10:54:53.640Z,22.79
2023-09-14T10:57:25.141Z,22.52
2023-09-14T10:59:55.084Z,21.98
2023-09-14T11:05:43.413Z,23.90
2023-09-14T11:08:13.311Z,25.20
2023-09-14T11:10:56.448Z,26.68
2023-09-14T11:13:36.782Z,27.64
2023-09-14T11:16:16.154Z,26.85
2023-09-14T11:18:59.338Z,26.88
2023-09-14T11:21:45.558Z,25.19
2023-09-14T11:24:18.153Z,25.12
2023-09-14T11:26:53.673Z,25.26
2023-09-14T11:29:28.367Z,25.92
2023-09-14T11:32:02.285Z,26.81
2023-09-14T11:34:39.729Z,27.19
2023-09-14T11:37:19.794Z,27.15
2023-09-14T11:40:30.926Z,28.03
2023-09-14T11:46:05.706Z,28.32
2023-09-14T11:51:10.323Z,27.45
2023-09-14T11:53:38.590Z,26.73
2023-09-14T11:56:06.833Z,24.65
2023-09-14T11:58:36.663Z,22.01
2023-09-14T12:01:05.456Z,22.21
2023-09-14T12:03:33.801Z,21.53
2023-09-14T12:06:02.111Z,21.10
2023-09-14T12:08:33.713Z,22.11
2023-09-14T12:11:03.025Z,21.91
2023-09-14T12:13:31.628Z,22.71
2023-09-14T12:16:01.837Z,23.77
2023-09-14T12:18:42.290Z,22.52
2023-09-14T12:21:11.493Z,22.19
2023-09-14T12:23:43.353Z,21.68
2023-09-14T12:26:15.865Z,21.92
2023-09-14T12:28:48.026Z,20.73
2023-09-14T12:31:17.813Z,21.14
2023-09-14T12:33:46.639Z,20.61
2023-09-14T12:36:20.936Z,20.25
2023-09-14T12:38:52.528Z,22.31
2023-09-14T12:41:23.324Z,21.04
2023-09-14T12:43:51.745Z,22.01
2023-09-14T12:46:40.523Z,20.09
2023-09-14T12:49:08.936Z,20.34
2023-09-14T12:51:45.819Z,19.73
2023-09-14T12:54:18.138Z,19.74
2023-09-14T12:56:46.542Z,20.37
2023-09-14T12:59:14.599Z,21.57
2023-09-14T13:01:42.718Z,23.13
2023-09-14T13:04:11.127Z,24.56
2023-09-14T13:06:39.563Z,25.71
2023-09-14T13:09:09.788Z,25.95
2023-09-14T13:11:40.287Z,25.08
2023-09-14T13:14:08.933Z,24.20
2023-09-14T13:16:37.126Z,22.82
2023-09-14T13:19:05.796Z,24.14
2023-09-14T13:21:37.839Z,23.69
2023-09-14T13:24:07.640Z,23.14
2023-09-14T13:26:36.180Z,22.45
2023-09-14T13:29:06.079Z,22.42
2023-09-14T13:31:34.216Z,22.34
2023-09-14T13:34:03.110Z,21.80
2023-09-14T13:36:31.263Z,22.20
2023-09-14T13:39:02.127Z,22.70
2023-09-14T13:41:30.603Z,21.03
2023-09-14T13:43:58.644Z,21.24
2023-09-14T13:46:29.187Z,20.62
2023-09-14T13:48:58.800Z,20.67
2023-09-14T13:51:27.058Z,21.26
2023-09-14T13:53:55.127Z,20.41
2023-09-14T13:56:23.204Z,20.41
2023-09-14T13:58:51.255Z,21.32
2023-09-14T14:01:19.449Z,21.73
2023-09-14T14:03:49.850Z,20.21
2023-09-14T14:06:18.065Z,21.40
2023-09-14T14:08:46.128Z,21.28
2023-09-14T14:11:14.128Z,19.65
2023-09-14T14:13:42.204Z,20.15
2023-09-14T14:16:10.936Z,20.18
2023-09-14T14:18:39.068Z,20.13
2023-09-14T14:21:08.488Z,20.88
2023-09-14T14:23:36.553Z,20.15
2023-09-14T14:26:04.585Z,20.49
2023-09-14T14:28:32.672Z,20.94
2023-09-14T14:31:00.789Z,20.83
2023-09-14T14:33:31.547Z,21.28
2023-09-14T14:36:00.940Z,21.20
2023-09-14T14:38:30.369Z,22.31
2023-09-14T14:41:25.885Z,21.63
2023-09-14T14:43:46.804Z,20.68
2023-09-14T14:46:15.346Z,21.31
2023-09-14T14:48:44.324Z,23.49
2023-09-14T14:51:12.616Z,21.41
2023-09-14T14:53:42.933Z,22.31
2023-09-14T14:56:11.075Z,22.61
2023-09-14T14:58:39.097Z,23.16
2023-09-14T15:01:11.515Z,23.20
2023-09-14T15:03:40.006Z,23.75
2023-09-14T15:06:08.879Z,23.59
2023-09-14T15:08:37.742Z,24.03
2023-09-14T15:11:08.177Z,23.62
2023-09-14T15:13:36.723Z,24.76
2023-09-14T15:16:05.484Z,24.75
2023-09-14T15:18:38.562Z,24.32
2023-09-14T15:21:07.063Z,24.20
2023-09-14T15:23:35.379Z,24.54
2023-09-14T15:26:05.725Z,24.79
2023-09-14T15:28:35.277Z,25.04
2023-09-14T15:31:11.707Z,25.61
2023-09-14T15:33:40.395Z,25.78
2023-09-14T15:36:08.846Z,27.19
2023-09-14T15:38:36.977Z,27.65
2023-09-14T15:41:05.059Z,25.91
2023-09-14T15:43:33.092Z,26.49
2023-09-14T15:46:03.137Z,25.81
2023-09-14T15:48:31.517Z,25.09
2023-09-14T15:50:59.629Z,26.41
2023-09-14T15:53:28.771Z,26.01
2023-09-14T15:55:56.937Z,25.40
2023-09-14T15:58:24.977Z,27.41
2023-09-14T16:00:58.460Z,27.23
2023-09-14T16:03:28.119Z,27.31
2023-09-14T16:05:58.398Z,26.12
2023-09-14T16:08:26.508Z,25.94
2023-09-14T16:10:57.014Z,25.91
2023-09-14T16:13:25.104Z,26.14
2023-09-14T16:15:53.520Z,26.92
2023-09-14T16:18:21.912Z,27.00
2023-09-14T16:20:51.377Z,27.74
2023-09-14T16:23:19.493Z,27.16
2023-09-14T16:25:52.046Z,27.14
2023-09-14T16:28:20.840Z,27.78
2023-09-14T16:30:51.277Z,27.62
2023-09-14T16:33:21.457Z,28.02
2023-09-14T16:35:57.217Z,28.16
2023-09-14T16:38:25.750Z,29.19
2023-09-14T16:40:54.021Z,29.56
2023-09-14T16:43:22.349Z,30.91
2023-09-14T16:45:50.821Z,31.09
2023-09-14T16:48:19.003Z,31.94
2023-09-14T16:50:49.398Z,31.55
2023-09-14T16:53:19.933Z,31.46
2023-09-14T16:55:48.031Z,30.97
2023-09-14T16:58:17.205Z,31.06
2023-09-14T17:00:45.252Z,32.09
2023-09-14T17:03:15.764Z,32.54
2023-09-14T17:05:43.797Z,32.85
2023-09-14T17:08:13.557Z,33.45
2023-09-14T17:10:42.963Z,33.84
2023-09-14T17:13:11.059Z,34.40
2023-09-14T17:15:39.237Z,35.10
2023-09-14T17:18:08.014Z,35.54
2023-09-14T17:20:36.174Z,35.82
2023-09-14T17:23:05.897Z,36.21
2023-09-14T17:25:33.966Z,36.82
2023-09-14T17:28:03.432Z,37.30
2023-09-14T17:30:32.149Z,37.75
2023-09-14T17:33:00.577Z,38.01
2023-09-14T17:35:28.997Z,38.62
2023-09-14T17:37:57.159Z,39.07
2023-09-14T17:40:25.444Z,39.23
2023-09-14T17:42:53.546Z,39.52
2023-09-14T17:45:22.970Z,39.78
2023-09-14T17:47:51.198Z,40.11
2023-09-14T17:50:19.377Z,40.51
2023-09-14T17:52:47.575Z,40.91
2023-09-14T17:55:17.329Z,41.17
2023-09-14T17:57:45.980Z,41.53
2023-09-14T18:00:15.826Z,41.61
2023-09-14T18:02:47.037Z,41.74
2023-09-14T18:05:15.448Z,42.00
2023-09-14T18:07:44.988Z,42.18
2023-09-14T18:10:13.785Z,42.43
2023-09-14T18:12:41.957Z,42.60
2023-09-14T18:15:11.285Z,42.93
2023-09-14T18:17:39.447Z,43.10
2023-09-14T18:20:11.745Z,43.24
2023-09-14T18:22:42.241Z,43.51
2023-09-14T18:25:11.724Z,43.71
2023-09-14T18:27:39.871Z,43.91
2023-09-14T18:30:09.880Z,44.16
2023-09-14T18:32:51.402Z,44.27
2023-09-14T18:35:21.080Z,44.54
2023-09-14T18:37:52.189Z,44.65
2023-09-14T18:40:20.412Z,44.77
2023-09-14T18:42:50.072Z,44.99
2023-09-14T18:45:18.548Z,45.23
2023-09-14T18:47:46.636Z,45.35
2023-09-14T18:50:14.772Z,45.33
2023-09-14T18:52:45.117Z,45.41
2023-09-14T18:55:14.895Z,45.66
2023-09-14T18:57:44.646Z,45.83
2023-09-14T19:00:13.475Z,45.86
2023-09-14T19:02:43.107Z,45.98
2023-09-14T19:05:11.280Z,46.13
2023-09-14T19:07:39.344Z,46.26
2023-09-14T19:10:10.370Z,46.34
2023-09-14T19:12:38.568Z,46.55
2023-09-14T19:15:08.486Z,46.72
2023-09-14T19:17:36.564Z,46.84
2023-09-14T19:20:09.170Z,47.02
2023-09-14T19:22:37.245Z,47.00
2023-09-14T19:25:06.045Z,47.15
2023-09-14T19:27:35.565Z,47.28
2023-09-14T19:30:05.649Z,47.28
2023-09-14T19:32:34.331Z,47.39
2023-09-14T19:35:02.467Z,47.53
2023-09-14T19:37:30.534Z,47.69
2023-09-14T19:39:58.638Z,47.63
2023-09-14T19:42:27.035Z,47.63
2023-09-14T19:44:59.538Z,47.57
2023-09-14T19:47:28.227Z,47.65
2023-09-14T19:49:56.932Z,47.77
2023-09-14T19:52:25.570Z,47.73
2023-09-14T19:54:53.602Z,47.75
2023-09-14T19:57:21.683Z,47.76
2023-09-14T19:59:49.784Z,47.82
2023-09-14T20:02:19.667Z,47.99
2023-09-14T20:04:48.135Z,48.12
2023-09-14T20:07:16.277Z,48.25
2023-09-14T20:09:44.388Z,48.27
2023-09-14T20:12:17.282Z,48.21
2023-09-14T20:14:46.194Z,48.37
2023-09-14T20:17:16.904Z,48.61
2023-09-14T20:19:46.432Z,48.74
2023-09-14T20:22:14.811Z,48.73
2023-09-14T20:24:44.661Z,48.87
2023-09-14T20:27:13.273Z,49.01
2023-09-14T20:29:41.311Z,48.96
2023-09-14T20:32:09.369Z,49.08
2023-09-14T20:34:37.522Z,49.18
2023-09-14T20:37:08.299Z,49.12
2023-09-14T20:39:36.438Z,49.20
2023-09-14T20:42:05.200Z,49.21
2023-09-14T20:44:33.317Z,49.27
2023-09-14T20:47:01.382Z,49.45
2023-09-14T20:49:29.688Z,49.50
2023-09-14T20:51:57.883Z,49.47
2023-09-14T20:54:27.358Z,49.50
2023-09-14T20:56:55.624Z,49.74
2023-09-14T20:59:23.890Z,49.88
2023-09-14T21:01:52.969Z,49.82
2023-09-14T21:04:21.071Z,49.76
2023-09-14T21:06:49.251Z,49.77
2023-09-14T21:09:17.469Z,49.71
2023-09-14T21:11:47.016Z,49.67
2023-09-14T21:14:15.108Z,49.82
2023-09-14T21:16:43.292Z,50.02
2023-09-14T21:19:11.519Z,50.08
2023-09-14T21:21:40.012Z,50.09
2023-09-14T21:24:08.830Z,50.26
2023-09-14T21:26:36.918Z,50.30
2023-09-14T21:29:06.464Z,50.64
2023-09-14T21:31:34.639Z,50.62
2023-09-14T21:34:02.702Z,50.42
2023-09-14T21:36:30.817Z,50.40
2023-09-14T21:38:59.346Z,50.32
2023-09-14T21:41:27.448Z,50.42
2023-09-14T21:43:55.566Z,50.46
2023-09-14T21:46:25.685Z,50.72
2023-09-14T21:48:54.217Z,50.61
2023-09-14T21:51:22.338Z,50.55
2023-09-14T21:53:50.490Z,50.64
2023-09-14T21:56:18.549Z,50.77
2023-09-14T21:58:46.825Z,50.85
2023-09-14T22:01:15.429Z,50.87
2023-09-14T22:03:51.551Z,50.62
2023-09-14T22:08:51.344Z,50.63
2023-09-14T22:11:19.458Z,50.77
2023-09-14T22:13:47.586Z,50.71
2023-09-14T22:16:15.808Z,50.72
2023-09-14T22:18:47.183Z,50.54
2023-09-14T22:21:15.628Z,50.45
2023-09-14T22:23:44.664Z,50.46
2023-09-14T22:26:12.934Z,50.65
2023-09-14T22:28:41.035Z,50.54
2023-09-14T22:31:13.686Z,50.26
2023-09-14T22:33:42.220Z,50.47
2023-09-14T22:36:12.304Z,50.52
2023-09-14T22:38:41.143Z,50.57
2023-09-14T22:41:09.203Z,50.54
2023-09-14T22:43:37.229Z,50.57
2023-09-14T22:46:05.338Z,50.63
2023-09-14T22:48:33.472Z,50.54
2023-09-14T22:51:06.068Z,50.38
2023-09-14T22:53:38.556Z,50.67
2023-09-14T22:56:15.477Z,50.79
2023-09-14T22:58:44.881Z,51.01
2023-09-14T23:01:13.364Z,51.10
2023-09-14T23:03:42.247Z,51.22
2023-09-14T23:06:13.061Z,51.40
2023-09-14T23:08:45.576Z,51.28
2023-09-14T23:11:21.528Z,51.26
2023-09-14T23:13:50.336Z,51.25
2023-09-14T23:16:19.429Z,51.29
2023-09-14T23:18:47.813Z,51.42
2023-09-14T23:21:16.603Z,51.52
2023-09-14T23:23:46.297Z,51.48
2023-09-14T23:26:14.662Z,51.56
2023-09-14T23:28:42.719Z,51.62
2023-09-14T23:31:10.835Z,51.60
2023-09-14T23:33:39.021Z,51.68
2023-09-14T23:36:09.832Z,51.68
2023-09-14T23:38:38.504Z,51.66
2023-09-14T23:41:07.350Z,51.77
2023-09-14T23:43:35.683Z,51.90
2023-09-14T23:46:04.831Z,51.88
2023-09-14T23:48:34.304Z,51.98
2023-09-14T23:51:02.375Z,52.14
2023-09-14T23:53:30.537Z,52.46
2023-09-14T23:55:58.617Z,52.59
2023-09-14T23:58:28.029Z,52.57
